sensor_id;sensor_type;location;lat;lon;timestamp;pressure;altitude;pressure_sealevel;temperature;humidity
1726;BME280;41776;48.260;8.928;2023-07-13T00:00:08;51945.34;;;-145.69;nan
1726;BME280;41776;48.260;8.928;2023-07-13T00:02:35;51941.41;;;-145.69;nan
1726;BME280;41776;48.260;8.928;2023-07-13T00:05:02;51923.56;;;-145.69;nan
1726;BME280;41776;48.260;8.928;2023-07-13T00:07:31;51901.78;;;-145.69;nan
1726;BME280;41776;48.260;8.928;2023-07-13T00:09:57;51917.63;;;-145.69;nan
1726;BME280;41776;48.260;8.928;2023-07-13T00:12:29;51909.72;;;-145.69;nan
1726;BME280;41776;48.260;8.928;2023-07-13T00:14:57;51949.31;;;-145.69;nan
1726;BME280;41776;48.260;8.928;2023-07-13T00:17:26;51961.19;;;-145.69;nan
1726;BME280;41776;48.260;8.928;2023-07-13T00:19:53;51949.31;;;-145.69;nan
1726;BME280;41776;48.260;8.928;2023-07-13T00:22:20;51945.34;;;-145.69;nan
1726;BME280;41776;48.260;8.928;2023-07-13T00:24:51;51953.28;;;-145.69;nan
1726;BME280;41776;48.260;8.928;2023-07-13T00:27:18;51977.03;;;-145.69;nan
1726;BME280;41776;48.260;8.928;2023-07-13T00:29:45;51945.34;;;-145.69;nan
1726;BME280;41776;48.260;8.928;2023-07-13T00:32:11;51941.41;;;-145.69;nan
1726;BME280;41776;48.260;8.928;2023-07-13T00:34:39;51925.56;;;-145.69;nan
1726;BME280;41776;48.260;8.928;2023-07-13T00:37:06;51947.34;;;-145.69;nan
1726;BME280;41776;48.260;8.928;2023-07-13T00:39:33;51945.34;;;-145.69;nan
1726;BME280;41776;48.260;8.928;2023-07-13T00:42:00;51955.25;;;-145.69;nan
1726;BME280;41776;48.260;8.928;2023-07-13T00:44:27;51945.34;;;-145.69;nan
1726;BME280;41776;48.260;8.928;2023-07-13T00:46:53;51953.28;;;-145.69;nan
1726;BME280;41776;48.260;8.928;2023-07-13T00:49:25;51957.25;;;-145.69;nan
1726;BME280;41776;48.260;8.928;2023-07-13T00:51:57;51945.34;;;-145.69;nan
1726;BME280;41776;48.260;8.928;2023-07-13T00:54:32;51955.25;;;-145.69;nan
1726;BME280;41776;48.260;8.928;2023-07-13T00:57:03;51965.16;;;-145.69;nan
1726;BME280;41776;48.260;8.928;2023-07-13T00:59:33;51969.13;;;-145.69;nan
1726;BME280;41776;48.260;8.928;2023-07-13T01:02:01;51939.41;;;-145.69;nan
1726;BME280;41776;48.260;8.928;2023-07-13T01:04:29;51961.19;;;-145.69;nan
1726;BME280;41776;48.260;8.928;2023-07-13T01:06:57;51945.34;;;-145.69;nan
1726;BME280;41776;48.260;8.928;2023-07-13T01:09:26;51937.44;;;-145.69;nan
1726;BME280;41776;48.260;8.928;2023-07-13T01:15:37;51933.47;;;-145.69;nan
1726;BME280;41776;48.260;8.928;2023-07-13T01:18:05;51955.25;;;-145.69;nan
1726;BME280;41776;48.260;8.928;2023-07-13T01:20:33;51984.97;;;-145.69;nan
1726;BME280;41776;48.260;8.928;2023-07-13T01:23:05;51957.25;;;-145.69;nan
1726;BME280;41776;48.260;8.928;2023-07-13T01:25:32;51979.03;;;-145.69;nan
1726;BME280;41776;48.260;8.928;2023-07-13T01:28:02;51963.19;;;-145.69;nan
1726;BME280;41776;48.260;8.928;2023-07-13T01:30:33;51961.19;;;-145.69;nan
1726;BME280;41776;48.260;8.928;2023-07-13T01:32:59;51988.91;;;-145.69;nan
1726;BME280;41776;48.260;8.928;2023-07-13T01:35:26;51965.16;;;-145.69;nan
1726;BME280;41776;48.260;8.928;2023-07-13T01:37:56;51986.94;;;-145.69;nan
1726;BME280;41776;48.260;8.928;2023-07-13T01:40:24;51959.22;;;-145.69;nan
1726;BME280;41776;48.260;8.928;2023-07-13T01:42:50;51965.16;;;-145.69;nan
1726;BME280;41776;48.260;8.928;2023-07-13T01:45:17;51973.06;;;-145.69;nan
1726;BME280;41776;48.260;8.928;2023-07-13T01:47:43;51988.91;;;-145.69;nan
1726;BME280;41776;48.260;8.928;2023-07-13T01:50:10;51969.13;;;-145.69;nan
1726;BME280;41776;48.260;8.928;2023-07-13T01:52:36;51977.03;;;-145.69;nan
1726;BME280;41776;48.260;8.928;2023-07-13T01:55:04;51951.28;;;-145.69;nan
1726;BME280;41776;48.260;8.928;2023-07-13T01:57:32;51927.53;;;-145.69;nan
1726;BME280;41776;48.260;8.928;2023-07-13T02:00:02;51953.28;;;-145.69;nan
1726;BME280;41776;48.260;8.928;2023-07-13T02:02:31;51977.03;;;-145.69;nan
1726;BME280;41776;48.260;8.928;2023-07-13T02:04:58;51977.03;;;-145.69;nan
1726;BME280;41776;48.260;8.928;2023-07-13T02:07:24;51957.25;;;-145.69;nan
1726;BME280;41776;48.260;8.928;2023-07-13T02:09:51;51992.88;;;-145.69;nan
1726;BME280;41776;48.260;8.928;2023-07-13T02:12:17;51994.88;;;-145.69;nan
1726;BME280;41776;48.260;8.928;2023-07-13T02:14:45;52000.81;;;-145.69;nan
1726;BME280;41776;48.260;8.928;2023-07-13T02:17:12;51973.06;;;-145.69;nan
1726;BME280;41776;48.260;8.928;2023-07-13T02:19:38;52000.81;;;-145.69;nan
1726;BME280;41776;48.260;8.928;2023-07-13T02:22:05;51990.91;;;-145.69;nan
1726;BME280;41776;48.260;8.928;2023-07-13T02:24:32;51967.13;;;-145.69;nan
1726;BME280;41776;48.260;8.928;2023-07-13T02:26:59;52000.81;;;-145.69;nan
1726;BME280;41776;48.260;8.928;2023-07-13T02:29:28;52028.53;;;-145.69;nan
1726;BME280;41776;48.260;8.928;2023-07-13T02:31:56;52000.81;;;-145.69;nan
1726;BME280;41776;48.260;8.928;2023-07-13T02:34:22;52024.56;;;-145.69;nan
1726;BME280;41776;48.260;8.928;2023-07-13T02:36:49;51992.88;;;-145.69;nan
1726;BME280;41776;48.260;8.928;2023-07-13T02:39:15;52012.69;;;-145.69;nan
1726;BME280;41776;48.260;8.928;2023-07-13T02:41:42;51992.88;;;-145.69;nan
1726;BME280;41776;48.260;8.928;2023-07-13T02:44:08;52022.59;;;-145.69;nan
1726;BME280;41776;48.260;8.928;2023-07-13T02:46:36;51994.88;;;-145.69;nan
1726;BME280;41776;48.260;8.928;2023-07-13T02:49:04;51986.94;;;-145.69;nan
1726;BME280;41776;48.260;8.928;2023-07-13T02:51:31;52002.78;;;-145.69;nan
1726;BME280;41776;48.260;8.928;2023-07-13T02:53:59;51977.03;;;-145.69;nan
1726;BME280;41776;48.260;8.928;2023-07-13T02:56:27;52018.63;;;-145.69;nan
1726;BME280;41776;48.260;8.928;2023-07-13T02:58:54;52000.81;;;-145.69;nan
1726;BME280;41776;48.260;8.928;2023-07-13T03:01:21;52012.69;;;-145.69;nan
1726;BME280;41776;48.260;8.928;2023-07-13T03:03:48;51994.88;;;-145.69;nan
1726;BME280;41776;48.260;8.928;2023-07-13T03:06:17;52028.53;;;-145.69;nan
1726;BME280;41776;48.260;8.928;2023-07-13T03:08:44;51984.97;;;-145.69;nan
1726;BME280;41776;48.260;8.928;2023-07-13T03:11:13;52004.75;;;-145.69;nan
1726;BME280;41776;48.260;8.928;2023-07-13T03:13:41;52014.66;;;-145.69;nan
1726;BME280;41776;48.260;8.928;2023-07-13T03:16:08;52036.44;;;-145.69;nan
1726;BME280;41776;48.260;8.928;2023-07-13T03:18:35;52024.56;;;-145.69;nan
1726;BME280;41776;48.260;8.928;2023-07-13T03:21:02;52012.69;;;-145.69;nan
1726;BME280;41776;48.260;8.928;2023-07-13T03:23:30;52010.69;;;-145.69;nan
1726;BME280;41776;48.260;8.928;2023-07-13T03:26:04;52014.66;;;-145.69;nan
1726;BME280;41776;48.260;8.928;2023-07-13T03:28:32;52028.53;;;-145.69;nan
1726;BME280;41776;48.260;8.928;2023-07-13T03:31:00;52000.81;;;-145.69;nan
1726;BME280;41776;48.260;8.928;2023-07-13T03:33:26;52014.66;;;-145.69;nan
1726;BME280;41776;48.260;8.928;2023-07-13T03:35:53;52010.69;;;-145.69;nan
1726;BME280;41776;48.260;8.928;2023-07-13T03:38:19;52036.44;;;-145.69;nan
1726;BME280;41776;48.260;8.928;2023-07-13T03:40:47;52004.75;;;-145.69;nan
1726;BME280;41776;48.260;8.928;2023-07-13T03:43:14;52020.59;;;-145.69;nan
1726;BME280;41776;48.260;8.928;2023-07-13T03:45:41;52014.66;;;-145.69;nan
1726;BME280;41776;48.260;8.928;2023-07-13T03:48:07;52040.41;;;-145.69;nan
1726;BME280;41776;48.260;8.928;2023-07-13T03:50:33;52024.56;;;-145.69;nan
1726;BME280;41776;48.260;8.928;2023-07-13T03:53:00;52012.69;;;-145.69;nan
1726;BME280;41776;48.260;8.928;2023-07-13T03:55:26;52012.69;;;-145.69;nan
1726;BME280;41776;48.260;8.928;2023-07-13T03:57:59;52000.81;;;-145.69;nan
1726;BME280;41776;48.260;8.928;2023-07-13T04:00:26;51994.88;;;-145.69;nan
1726;BME280;41776;48.260;8.928;2023-07-13T04:02:52;52008.72;;;-145.69;nan
1726;BME280;41776;48.260;8.928;2023-07-13T04:05:19;52022.59;;;-145.69;nan
1726;BME280;41776;48.260;8.928;2023-07-13T04:07:45;52014.66;;;-145.69;nan
1726;BME280;41776;48.260;8.928;2023-07-13T04:10:12;52004.75;;;-145.69;nan
1726;BME280;41776;48.260;8.928;2023-07-13T04:12:38;51969.13;;;-145.69;nan
1726;BME280;41776;48.260;8.928;2023-07-13T04:15:07;52070.09;;;-145.69;nan
1726;BME280;41776;48.260;8.928;2023-07-13T04:17:34;52004.75;;;-145.69;nan
1726;BME280;41776;48.260;8.928;2023-07-13T04:20:01;52006.75;;;-145.69;nan
1726;BME280;41776;48.260;8.928;2023-07-13T04:22:27;52020.59;;;-145.69;nan
1726;BME280;41776;48.260;8.928;2023-07-13T04:24:54;51996.84;;;-145.69;nan
1726;BME280;41776;48.260;8.928;2023-07-13T04:27:20;51992.88;;;-145.69;nan
1726;BME280;41776;48.260;8.928;2023-07-13T04:29:46;52004.75;;;-145.69;nan
1726;BME280;41776;48.260;8.928;2023-07-13T04:32:14;51998.81;;;-145.69;nan
1726;BME280;41776;48.260;8.928;2023-07-13T04:34:41;51988.91;;;-145.69;nan
1726;BME280;41776;48.260;8.928;2023-07-13T04:37:07;51984.97;;;-145.69;nan
1726;BME280;41776;48.260;8.928;2023-07-13T04:39:34;52012.69;;;-145.69;nan
1726;BME280;41776;48.260;8.928;2023-07-13T04:42:00;52002.78;;;-145.69;nan
1726;BME280;41776;48.260;8.928;2023-07-13T04:44:27;51992.88;;;-145.69;nan
1726;BME280;41776;48.260;8.928;2023-07-13T04:46:53;52012.69;;;-145.69;nan
1726;BME280;41776;48.260;8.928;2023-07-13T04:49:21;51982.97;;;-145.69;nan
1726;BME280;41776;48.260;8.928;2023-07-13T04:51:47;51973.06;;;-145.69;nan
1726;BME280;41776;48.260;8.928;2023-07-13T04:54:15;52020.59;;;-145.69;nan
1726;BME280;41776;48.260;8.928;2023-07-13T04:56:42;51988.91;;;-145.69;nan
1726;BME280;41776;48.260;8.928;2023-07-13T04:59:08;51982.97;;;-145.69;nan
1726;BME280;41776;48.260;8.928;2023-07-13T05:01:35;52000.81;;;-145.69;nan
1726;BME280;41776;48.260;8.928;2023-07-13T05:04:01;52008.72;;;-145.69;nan
1726;BME280;41776;48.260;8.928;2023-07-13T05:06:29;51981.00;;;-145.69;nan
1726;BME280;41776;48.260;8.928;2023-07-13T05:08:56;51961.19;;;-145.69;nan
1726;BME280;41776;48.260;8.928;2023-07-13T05:11:23;51973.06;;;-145.69;nan
1726;BME280;41776;48.260;8.928;2023-07-13T05:13:50;51957.25;;;-145.69;nan
1726;BME280;41776;48.260;8.928;2023-07-13T05:16:16;51988.91;;;-145.69;nan
1726;BME280;41776;48.260;8.928;2023-07-13T05:18:43;51943.38;;;-145.69;nan
1726;BME280;41776;48.260;8.928;2023-07-13T05:21:10;51988.91;;;-145.69;nan
1726;BME280;41776;48.260;8.928;2023-07-13T05:23:38;51996.84;;;-145.69;nan
1726;BME280;41776;48.260;8.928;2023-07-13T05:26:06;51931.50;;;-145.69;nan
1726;BME280;41776;48.260;8.928;2023-07-13T05:28:33;51957.25;;;-145.69;nan
1726;BME280;41776;48.260;8.928;2023-07-13T05:31:00;51967.13;;;-145.69;nan
1726;BME280;41776;48.260;8.928;2023-07-13T05:33:28;51971.09;;;-145.69;nan
1726;BME280;41776;48.260;8.928;2023-07-13T05:35:55;51953.28;;;-145.69;nan
1726;BME280;41776;48.260;8.928;2023-07-13T05:38:22;51957.25;;;-145.69;nan
1726;BME280;41776;48.260;8.928;2023-07-13T05:40:50;51935.47;;;-145.69;nan
1726;BME280;41776;48.260;8.928;2023-07-13T05:43:17;51921.59;;;-145.69;nan
1726;BME280;41776;48.260;8.928;2023-07-13T05:45:43;51913.69;;;-145.69;nan
1726;BME280;41776;48.260;8.928;2023-07-13T05:48:10;51905.75;;;-145.69;nan
1726;BME280;41776;48.260;8.928;2023-07-13T05:50:36;51913.69;;;-145.69;nan
1726;BME280;41776;48.260;8.928;2023-07-13T05:53:03;51937.44;;;-145.69;nan
1726;BME280;41776;48.260;8.928;2023-07-13T05:55:30;51939.41;;;-145.69;nan
1726;BME280;41776;48.260;8.928;2023-07-13T05:57:58;51893.88;;;-145.69;nan
1726;BME280;41776;48.260;8.928;2023-07-13T06:00:25;51891.88;;;-145.69;nan
1726;BME280;41776;48.260;8.928;2023-07-13T06:02:52;51866.16;;;-145.69;nan
1726;BME280;41776;48.260;8.928;2023-07-13T06:05:19;51885.94;;;-145.69;nan
1726;BME280;41776;48.260;8.928;2023-07-13T06:07:45;51897.84;;;-145.69;nan
1726;BME280;41776;48.260;8.928;2023-07-13T06:10:11;51915.66;;;-145.69;nan
1726;BME280;41776;48.260;8.928;2023-07-13T06:12:38;51889.91;;;-145.69;nan
1726;BME280;41776;48.260;8.928;2023-07-13T06:15:07;51889.91;;;-145.69;nan
1726;BME280;41776;48.260;8.928;2023-07-13T06:17:34;51885.94;;;-145.69;nan
1726;BME280;41776;48.260;8.928;2023-07-13T06:20:00;51876.06;;;-145.69;nan
1726;BME280;41776;48.260;8.928;2023-07-13T06:22:27;51874.06;;;-145.69;nan
1726;BME280;41776;48.260;8.928;2023-07-13T06:24:53;51901.78;;;-145.69;nan
1726;BME280;41776;48.260;8.928;2023-07-13T06:27:20;51882.00;;;-145.69;nan
1726;BME280;41776;48.260;8.928;2023-07-13T06:29:46;51882.00;;;-145.69;nan
1726;BME280;41776;48.260;8.928;2023-07-13T06:32:14;51901.78;;;-145.69;nan
1726;BME280;41776;48.260;8.928;2023-07-13T06:34:41;51907.72;;;-145.69;nan
1726;BME280;41776;48.260;8.928;2023-07-13T06:37:08;51927.53;;;-145.69;nan
1726;BME280;41776;48.260;8.928;2023-07-13T06:39:34;51899.81;;;-145.69;nan
1726;BME280;41776;48.260;8.928;2023-07-13T06:42:01;51882.00;;;-145.69;nan
1726;BME280;41776;48.260;8.928;2023-07-13T06:44:27;51903.78;;;-145.69;nan
1726;BME280;41776;48.260;8.928;2023-07-13T06:46:54;51876.06;;;-145.69;nan
1726;BME280;41776;48.260;8.928;2023-07-13T06:49:22;51897.84;;;-145.69;nan
1726;BME280;41776;48.260;8.928;2023-07-13T06:51:48;51937.44;;;-145.69;nan
1726;BME280;41776;48.260;8.928;2023-07-13T06:54:14;51874.06;;;-145.69;nan
1726;BME280;41776;48.260;8.928;2023-07-13T06:56:41;51913.69;;;-145.69;nan
1726;BME280;41776;48.260;8.928;2023-07-13T06:59:08;51903.78;;;-145.69;nan
1726;BME280;41776;48.260;8.928;2023-07-13T07:01:34;51905.75;;;-145.69;nan
1726;BME280;41776;48.260;8.928;2023-07-13T07:04:00;51909.72;;;-145.69;nan
1726;BME280;41776;48.260;8.928;2023-07-13T07:06:28;51893.88;;;-145.69;nan
1726;BME280;41776;48.260;8.928;2023-07-13T07:08:55;51913.69;;;-145.69;nan
1726;BME280;41776;48.260;8.928;2023-07-13T07:11:24;51878.03;;;-145.69;nan
1726;BME280;41776;48.260;8.928;2023-07-13T07:13:52;51895.84;;;-145.69;nan
1726;BME280;41776;48.260;8.928;2023-07-13T07:16:20;51887.94;;;-145.69;nan
1726;BME280;41776;48.260;8.928;2023-07-13T07:18:47;51893.88;;;-145.69;nan
1726;BME280;41776;48.260;8.928;2023-07-13T07:21:14;51856.25;;;-145.69;nan
1726;BME280;41776;48.260;8.928;2023-07-13T07:23:42;51882.00;;;-145.69;nan
1726;BME280;41776;48.260;8.928;2023-07-13T07:26:09;51878.03;;;-145.69;nan
1726;BME280;41776;48.260;8.928;2023-07-13T07:28:39;51862.19;;;-145.69;nan
1726;BME280;41776;48.260;8.928;2023-07-13T07:31:05;51862.19;;;-145.69;nan
1726;BME280;41776;48.260;8.928;2023-07-13T07:33:32;51901.78;;;-145.69;nan
1726;BME280;41776;48.260;8.928;2023-07-13T07:35:59;51862.19;;;-145.69;nan
1726;BME280;41776;48.260;8.928;2023-07-13T07:38:25;51882.00;;;-145.69;nan
1726;BME280;41776;48.260;8.928;2023-07-13T07:40:53;51897.84;;;-145.69;nan
1726;BME280;41776;48.260;8.928;2023-07-13T07:43:20;51874.06;;;-145.69;nan
1726;BME280;41776;48.260;8.928;2023-07-13T07:45:46;51893.88;;;-145.69;nan
1726;BME280;41776;48.260;8.928;2023-07-13T07:48:13;51872.09;;;-145.69;nan
1726;BME280;41776;48.260;8.928;2023-07-13T07:50:39;51889.91;;;-145.69;nan
1726;BME280;41776;48.260;8.928;2023-07-13T07:53:06;51878.03;;;-145.69;nan
1726;BME280;41776;48.260;8.928;2023-07-13T07:55:35;51854.28;;;-145.69;nan
1726;BME280;41776;48.260;8.928;2023-07-13T07:58:04;51878.03;;;-145.69;nan
1726;BME280;41776;48.260;8.928;2023-07-13T08:00:31;51848.34;;;-145.69;nan
1726;BME280;41776;48.260;8.928;2023-07-13T08:02:58;51874.06;;;-145.69;nan
1726;BME280;41776;48.260;8.928;2023-07-13T08:05:25;51862.19;;;-145.69;nan
1726;BME280;41776;48.260;8.928;2023-07-13T08:07:52;51858.22;;;-145.69;nan
1726;BME280;41776;48.260;8.928;2023-07-13T08:10:18;51856.25;;;-145.69;nan
1726;BME280;41776;48.260;8.928;2023-07-13T08:12:45;51848.34;;;-145.69;nan
1726;BME280;41776;48.260;8.928;2023-07-13T08:15:16;51866.16;;;-145.69;nan
1726;BME280;41776;48.260;8.928;2023-07-13T08:17:43;51854.28;;;-145.69;nan
1726;BME280;41776;48.260;8.928;2023-07-13T08:20:10;51836.44;;;-145.69;nan
1726;BME280;41776;48.260;8.928;2023-07-13T08:22:37;51826.56;;;-145.69;nan
1726;BME280;41776;48.260;8.928;2023-07-13T08:25:04;51800.81;;;-145.69;nan
1726;BME280;41776;48.260;8.928;2023-07-13T08:27:30;51810.72;;;-145.69;nan
1726;BME280;41776;48.260;8.928;2023-07-13T08:29:57;51808.72;;;-145.69;nan
1726;BME280;41776;48.260;8.928;2023-07-13T08:32:25;51814.66;;;-145.69;nan
1726;BME280;41776;48.260;8.928;2023-07-13T08:34:52;51808.72;;;-145.69;nan
1726;BME280;41776;48.260;8.928;2023-07-13T08:37:19;51812.69;;;-145.69;nan
1726;BME280;41776;48.260;8.928;2023-07-13T08:39:46;51796.84;;;-145.69;nan
1726;BME280;41776;48.260;8.928;2023-07-13T08:42:18;51810.72;;;-145.69;nan
1726;BME280;41776;48.260;8.928;2023-07-13T08:44:54;51836.44;;;-145.69;nan
1726;BME280;41776;48.260;8.928;2023-07-13T08:47:23;51826.56;;;-145.69;nan
1726;BME280;41776;48.260;8.928;2023-07-13T08:49:52;51794.88;;;-145.69;nan
1726;BME280;41776;48.260;8.928;2023-07-13T08:52:28;51810.72;;;-145.69;nan
1726;BME280;41776;48.260;8.928;2023-07-13T08:55:01;51802.78;;;-145.69;nan
1726;BME280;41776;48.260;8.928;2023-07-13T08:57:32;51775.06;;;-145.69;nan
1726;BME280;41776;48.260;8.928;2023-07-13T09:00:01;51806.75;;;-145.69;nan
1726;BME280;41776;48.260;8.928;2023-07-13T09:02:41;51826.56;;;-145.69;nan
1726;BME280;41776;48.260;8.928;2023-07-13T09:05:12;51810.72;;;-145.69;nan
1726;BME280;41776;48.260;8.928;2023-07-13T09:07:57;51783.00;;;-145.69;nan
1726;BME280;41776;48.260;8.928;2023-07-13T09:10:41;51788.94;;;-145.69;nan
1726;BME280;41776;48.260;8.928;2023-07-13T09:13:27;51761.22;;;-145.69;nan
1726;BME280;41776;48.260;8.928;2023-07-13T09:15:55;51765.16;;;-145.69;nan
1726;BME280;41776;48.260;8.928;2023-07-13T09:18:26;51759.22;;;-145.69;nan
1726;BME280;41776;48.260;8.928;2023-07-13T09:20:58;51767.16;;;-145.69;nan
1726;BME280;41776;48.260;8.928;2023-07-13T09:23:28;51749.31;;;-145.69;nan
1726;BME280;41776;48.260;8.928;2023-07-13T09:26:04;51786.94;;;-145.69;nan
1726;BME280;41776;48.260;8.928;2023-07-13T09:28:35;51763.19;;;-145.69;nan
1726;BME280;41776;48.260;8.928;2023-07-13T09:31:06;51783.00;;;-145.69;nan
1726;BME280;41776;48.260;8.928;2023-07-13T09:33:33;51779.03;;;-145.69;nan
1726;BME280;41776;48.260;8.928;2023-07-13T09:36:16;51771.09;;;-145.69;nan
1726;BME280;41776;48.260;8.928;2023-07-13T09:38:44;51771.09;;;-145.69;nan
1726;BME280;41776;48.260;8.928;2023-07-13T09:41:19;51800.81;;;-145.69;nan
1726;BME280;41776;48.260;8.928;2023-07-13T09:44:07;51749.31;;;-145.69;nan
1726;BME280;41776;48.260;8.928;2023-07-13T09:46:34;51751.31;;;-145.69;nan
1726;BME280;41776;48.260;8.928;2023-07-13T09:49:01;51771.09;;;-145.69;nan
1726;BME280;41776;48.260;8.928;2023-07-13T09:51:29;51765.16;;;-145.69;nan
1726;BME280;41776;48.260;8.928;2023-07-13T09:53:58;51739.44;;;-145.69;nan
1726;BME280;41776;48.260;8.928;2023-07-13T09:56:27;51741.41;;;-145.69;nan
1726;BME280;41776;48.260;8.928;2023-07-13T09:58:55;51715.66;;;-145.69;nan
1726;BME280;41776;48.260;8.928;2023-07-13T10:01:33;51747.34;;;-145.69;nan
1726;BME280;41776;48.260;8.928;2023-07-13T10:04:00;51757.25;;;-145.69;nan
1726;BME280;41776;48.260;8.928;2023-07-13T10:06:27;51717.66;;;-145.69;nan
1726;BME280;41776;48.260;8.928;2023-07-13T10:08:56;51731.50;;;-145.69;nan
1726;BME280;41776;48.260;8.928;2023-07-13T10:11:24;51711.72;;;-145.69;nan
1726;BME280;41776;48.260;8.928;2023-07-13T10:13:54;51717.66;;;-145.69;nan
1726;BME280;41776;48.260;8.928;2023-07-13T10:16:23;51709.72;;;-145.69;nan
1726;BME280;41776;48.260;8.928;2023-07-13T10:18:57;51713.69;;;-145.69;nan
1726;BME280;41776;48.260;8.928;2023-07-13T10:21:28;51719.63;;;-145.69;nan
1726;BME280;41776;48.260;8.928;2023-07-13T10:24:04;51719.63;;;-145.69;nan
1726;BME280;41776;48.260;8.928;2023-07-13T10:26:34;51691.91;;;-145.69;nan
1726;BME280;41776;48.260;8.928;2023-07-13T10:29:04;51743.38;;;-145.69;nan
1726;BME280;41776;48.260;8.928;2023-07-13T10:31:35;51713.69;;;-145.69;nan
1726;BME280;41776;48.260;8.928;2023-07-13T10:34:03;51771.09;;;-145.69;nan
1726;BME280;41776;48.260;8.928;2023-07-13T10:36:34;51741.41;;;-145.69;nan
1726;BME280;41776;48.260;8.928;2023-07-13T10:39:13;51711.72;;;-145.69;nan
1726;BME280;41776;48.260;8.928;2023-07-13T10:41:42;51699.81;;;-145.69;nan
1726;BME280;41776;48.260;8.928;2023-07-13T10:44:18;51745.38;;;-145.69;nan
1726;BME280;41776;48.260;8.928;2023-07-13T10:46:48;51727.53;;;-145.69;nan
1726;BME280;41776;48.260;8.928;2023-07-13T10:49:16;51697.84;;;-145.69;nan
1726;BME280;41776;48.260;8.928;2023-07-13T10:51:44;51737.44;;;-145.69;nan
1726;BME280;41776;48.260;8.928;2023-07-13T10:54:20;51687.94;;;-145.69;nan
1726;BME280;41776;48.260;8.928;2023-07-13T10:56:52;51683.97;;;-145.69;nan
1726;BME280;41776;48.260;8.928;2023-07-13T10:59:25;51674.09;;;-145.69;nan
1726;BME280;41776;48.260;8.928;2023-07-13T11:01:56;51691.91;;;-145.69;nan
1726;BME280;41776;48.260;8.928;2023-07-13T11:04:25;51751.31;;;-145.69;nan
1726;BME280;41776;48.260;8.928;2023-07-13T11:06:57;51755.25;;;-145.69;nan
1726;BME280;41776;48.260;8.928;2023-07-13T11:09:37;51745.38;;;-145.69;nan
1726;BME280;41776;48.260;8.928;2023-07-13T11:14:29;51747.34;;;-145.69;32.64
1726;BME280;41776;48.260;8.928;2023-07-13T11:16:57;51771.09;;;-145.69;31.73
1726;BME280;41776;48.260;8.928;2023-07-13T11:19:37;51725.56;;;-145.69;32.65
1726;BME280;41776;48.260;8.928;2023-07-13T11:22:14;51717.66;;;-145.69;32.84
1726;BME280;41776;48.260;8.928;2023-07-13T11:24:54;51733.50;;;-145.69;32.15
1726;BME280;41776;48.260;8.928;2023-07-13T11:27:33;51721.59;;;-145.69;32.35
1726;BME280;41776;48.260;8.928;2023-07-13T11:30:24;51741.41;;;-145.69;33.44
1726;BME280;41776;48.260;8.928;2023-07-13T11:33:02;51727.53;;;-145.69;33.10
1726;BME280;41776;48.260;8.928;2023-07-13T11:35:33;51757.25;;;-145.69;33.44
1726;BME280;41776;48.260;8.928;2023-07-13T11:38:01;51743.38;;;-145.69;33.16
1726;BME280;41776;48.260;8.928;2023-07-13T11:40:29;51731.50;;;-145.69;32.71
1726;BME280;41776;48.260;8.928;2023-07-13T11:42:59;51721.59;;;-145.69;31.50
1726;BME280;41776;48.260;8.928;2023-07-13T11:45:27;51703.78;;;-145.69;31.56
1726;BME280;41776;48.260;8.928;2023-07-13T11:47:54;51715.66;;;-145.69;31.29
1726;BME280;41776;48.260;8.928;2023-07-13T11:50:23;51717.66;;;-145.69;30.91
1726;BME280;41776;48.260;8.928;2023-07-13T11:52:52;51695.88;;;-145.69;30.86
1726;BME280;41776;48.260;8.928;2023-07-13T11:55:22;51711.72;;;-145.69;31.02
1726;BME280;41776;48.260;8.928;2023-07-13T11:57:58;51727.53;;;-145.69;31.79
1726;BME280;41776;48.260;8.928;2023-07-13T12:00:31;51687.94;;;-145.69;31.45
1726;BME280;41776;48.260;8.928;2023-07-13T12:03:01;51707.75;;;-145.69;30.75
1726;BME280;41776;48.260;8.928;2023-07-13T12:05:32;51745.38;;;-145.69;31.50
1726;BME280;41776;48.260;8.928;2023-07-13T12:08:08;51705.75;;;-145.69;31.79
1726;BME280;41776;48.260;8.928;2023-07-13T12:10:36;51735.47;;;-145.69;31.77
1726;BME280;41776;48.260;8.928;2023-07-13T12:13:04;51683.97;;;-145.69;31.43
1726;BME280;41776;48.260;8.928;2023-07-13T12:15:37;51687.94;;;-145.69;31.73
1726;BME280;41776;48.260;8.928;2023-07-13T12:18:11;51691.91;;;-145.69;31.45
1726;BME280;41776;48.260;8.928;2023-07-13T12:20:39;51685.97;;;-145.69;31.32
1726;BME280;41776;48.260;8.928;2023-07-13T12:23:21;51697.84;;;-145.69;30.96
1726;BME280;41776;48.260;8.928;2023-07-13T12:25:50;51666.16;;;-145.69;31.12
1726;BME280;41776;48.260;8.928;2023-07-13T12:28:20;51662.22;;;-145.69;29.67
1726;BME280;41776;48.260;8.928;2023-07-13T12:30:49;51680.03;;;-145.69;30.28
1726;BME280;41776;48.260;8.928;2023-07-13T12:33:16;51648.34;;;-145.69;29.73
1726;BME280;41776;48.260;8.928;2023-07-13T12:35:45;51683.97;;;-145.69;29.83
1726;BME280;41776;48.260;8.928;2023-07-13T12:38:15;51640.44;;;-145.69;29.88
1726;BME280;41776;48.260;8.928;2023-07-13T12:40:42;51668.16;;;-145.69;29.11
1726;BME280;41776;48.260;8.928;2023-07-13T12:43:11;51672.09;;;-145.69;28.94
1726;BME280;41776;48.260;8.928;2023-07-13T12:45:38;51626.56;;;-145.69;29.88
1726;BME280;41776;48.260;8.928;2023-07-13T12:48:16;51648.34;;;-145.69;29.33
1726;BME280;41776;48.260;8.928;2023-07-13T12:50:48;51636.47;;;-145.69;29.14
1726;BME280;41776;48.260;8.928;2023-07-13T12:53:19;51658.25;;;-145.69;28.71
1726;BME280;41776;48.260;8.928;2023-07-13T12:55:48;51666.16;;;-145.69;28.97
1726;BME280;41776;48.260;8.928;2023-07-13T12:58:25;51689.94;;;-145.69;28.68
1726;BME280;41776;48.260;8.928;2023-07-13T13:00:54;51691.91;;;-145.69;29.31
1726;BME280;41776;48.260;8.928;2023-07-13T13:03:26;51691.91;;;-145.69;29.13
1726;BME280;41776;48.260;8.928;2023-07-13T13:05:57;51685.97;;;-145.69;28.44
1726;BME280;41776;48.260;8.928;2023-07-13T13:08:28;51683.97;;;-145.69;28.32
1726;BME280;41776;48.260;8.928;2023-07-13T13:10:54;51695.88;;;-145.69;28.15
1726;BME280;41776;48.260;8.928;2023-07-13T13:13:21;51654.28;;;-145.69;28.23
1726;BME280;41776;48.260;8.928;2023-07-13T13:15:50;51650.31;;;-145.69;28.21
1726;BME280;41776;48.260;8.928;2023-07-13T13:18:19;51668.16;;;-145.69;28.22
1726;BME280;41776;48.260;8.928;2023-07-13T13:20:50;51632.50;;;-145.69;27.94